Terminal Aerodrome Forecast
Issued by NWS Lake Charles, LA

Home | Current Version | Previous Version | Text Only | Print | Product List | Glossary On
Versions: 1 2 3 4 5 6 7 8 9 10 11 12 13 14 15
000
FTUS44 KLCH 050520
TAFLCH
TAF
KLCH 050520Z 0506/0606 16004KT P6SM VCSH SCT021 SCT040 BKN200
     FM051400 VRB06KT P6SM VCTS SCT030CB BKN040 BKN190
     FM060000 16005KT P6SM BKN200=

USA.gov is the U.S. government's official web portal to all federal, state and local government web resources and services.